createdAt,value
2022-11-06T00:02:49.414Z,100.00
2022-11-06T00:07:51.199Z,100.00
2022-11-06T00:12:53.032Z,100.00
2022-11-06T00:17:54.901Z,100.00
2022-11-06T00:22:56.970Z,100.00
2022-11-06T00:27:58.803Z,100.00
2022-11-06T00:33:00.567Z,100.00
2022-11-06T00:38:02.301Z,100.00
2022-11-06T00:43:04.061Z,100.00
2022-11-06T00:48:07.096Z,100.00
2022-11-06T00:53:08.918Z,100.00
2022-11-06T00:58:11.019Z,100.00
2022-11-06T01:03:13.114Z,100.00
2022-11-06T01:08:15.241Z,100.00
2022-11-06T01:13:17.351Z,100.00
2022-11-06T01:18:19.096Z,100.00
2022-11-06T01:23:20.810Z,100.00
2022-11-06T01:28:22.525Z,100.00
2022-11-06T01:33:24.362Z,100.00
2022-11-06T01:38:27.243Z,100.00
2022-11-06T01:43:47.252Z,100.00
2022-11-06T01:48:57.251Z,100.00
2022-11-06T01:53:59.147Z,100.00
2022-11-06T01:59:02.227Z,100.00
2022-11-06T02:04:11.289Z,100.00
2022-11-06T02:09:14.090Z,100.00
2022-11-06T02:14:30.897Z,100.00
2022-11-06T02:19:51.184Z,100.00
2022-11-06T02:25:03.918Z,100.00
2022-11-06T02:30:11.159Z,100.00
2022-11-06T02:35:53.708Z,100.00
2022-11-06T02:40:59.047Z,100.00
2022-11-06T02:46:11.466Z,100.00
2022-11-06T02:51:18.267Z,100.00
2022-11-06T02:56:24.718Z,100.00
2022-11-06T03:01:29.761Z,100.00
2022-11-06T03:06:46.877Z,100.00
2022-11-06T03:11:59.839Z,100.00
2022-11-06T03:17:15.194Z,100.00
2022-11-06T03:22:39.170Z,100.00
2022-11-06T03:27:59.638Z,100.00
2022-11-06T03:33:13.737Z,100.00
2022-11-06T03:38:41.804Z,100.00
2022-11-06T03:43:48.824Z,100.00
2022-11-06T03:49:22.279Z,100.00
2022-11-06T03:54:27.530Z,100.00
2022-11-06T03:59:34.561Z,100.00
2022-11-06T04:04:47.711Z,100.00
2022-11-06T04:10:12.690Z,100.00
2022-11-06T04:15:18.304Z,100.00
2022-11-06T04:20:42.865Z,100.00
2022-11-06T04:26:13.367Z,100.00
2022-11-06T04:31:22.430Z,100.00
2022-11-06T04:36:37.718Z,100.00
2022-11-06T04:42:01.235Z,100.00
2022-11-06T04:47:07.791Z,100.00
2022-11-06T04:52:17.411Z,100.00
2022-11-06T04:57:19.200Z,100.00
2022-11-06T05:02:21.050Z,100.00
2022-11-06T05:07:22.857Z,100.00
2022-11-06T05:12:24.632Z,100.00
2022-11-06T05:17:26.423Z,100.00
2022-11-06T05:22:46.605Z,100.00
2022-11-06T05:27:48.231Z,100.00
2022-11-06T05:32:50.316Z,100.00
2022-11-06T05:37:58.166Z,100.00
2022-11-06T05:42:59.809Z,100.00
2022-11-06T05:48:01.422Z,100.00
2022-11-06T05:53:03.031Z,100.00
2022-11-06T05:58:04.621Z,100.00
2022-11-06T06:03:06.259Z,100.00
2022-11-06T06:08:07.893Z,100.00
2022-11-06T06:13:09.874Z,100.00
2022-11-06T06:18:11.975Z,100.00
2022-11-06T06:23:13.727Z,100.00
2022-11-06T06:28:15.587Z,100.00
2022-11-06T06:33:17.525Z,100.00
2022-11-06T06:38:19.108Z,100.00
2022-11-06T06:43:20.749Z,100.00
2022-11-06T06:48:22.320Z,100.00
2022-11-06T06:53:24.568Z,100.00
2022-11-06T06:58:26.889Z,100.00
2022-11-06T07:03:28.811Z,100.00
2022-11-06T07:08:30.829Z,100.00
2022-11-06T07:13:35.951Z,100.00
2022-11-06T07:18:39.581Z,100.00
2022-11-06T07:23:41.169Z,100.00
2022-11-06T07:28:42.872Z,100.00
2022-11-06T07:33:44.429Z,100.00
2022-11-06T07:38:46.050Z,100.00
2022-11-06T07:43:49.285Z,100.00
2022-11-06T07:48:50.864Z,100.00
2022-11-06T07:53:52.436Z,100.00
2022-11-06T07:58:54.046Z,100.00
2022-11-06T08:03:55.643Z,100.00
2022-11-06T08:08:59.026Z,100.00
2022-11-06T08:14:01.251Z,100.00
2022-11-06T08:19:02.944Z,100.00
2022-11-06T08:24:05.380Z,100.00
2022-11-06T08:29:07.802Z,100.00
2022-11-06T08:34:09.499Z,100.00
2022-11-06T08:39:14.208Z,100.00
2022-11-06T08:44:15.935Z,100.00
2022-11-06T08:49:17.463Z,100.00
2022-11-06T08:54:19.032Z,100.00
2022-11-06T08:59:20.570Z,100.00
2022-11-06T09:04:22.292Z,100.00
2022-11-06T09:09:31.835Z,100.00
2022-11-06T09:14:34.731Z,100.00
2022-11-06T09:19:36.632Z,100.00
2022-11-06T09:25:01.749Z,100.00
2022-11-06T09:30:01.207Z,100.00
2022-11-06T09:35:02.823Z,100.00
2022-11-06T09:40:06.487Z,100.00
2022-11-06T09:45:17.331Z,100.00
2022-11-06T09:50:24.006Z,100.00
2022-11-06T09:55:33.489Z,100.00
2022-11-06T10:00:35.259Z,100.00
2022-11-06T10:05:39.285Z,100.00
2022-11-06T10:10:52.515Z,100.00
2022-11-06T10:16:14.007Z,100.00
2022-11-06T10:21:24.601Z,100.00
2022-11-06T10:26:43.622Z,100.00
2022-11-06T10:32:19.568Z,100.00
2022-11-06T10:37:35.703Z,100.00
2022-11-06T10:42:38.680Z,100.00
2022-11-06T10:47:45.439Z,100.00
2022-11-06T10:52:55.411Z,100.00
2022-11-06T10:58:04.896Z,100.00
2022-11-06T11:03:16.578Z,100.00
2022-11-06T11:08:30.447Z,100.00
2022-11-06T11:13:32.259Z,100.00
2022-11-06T11:18:34.382Z,100.00
2022-11-06T11:23:36.094Z,100.00
2022-11-06T11:28:39.878Z,100.00
2022-11-06T11:33:49.798Z,100.00
2022-11-06T11:38:52.538Z,100.00
2022-11-06T11:44:26.903Z,100.00
2022-11-06T11:49:34.056Z,100.00
2022-11-06T11:54:36.932Z,100.00
2022-11-06T11:59:46.651Z,100.00
2022-11-06T12:04:57.937Z,96.38
2022-11-06T12:10:02.349Z,99.42
2022-11-06T12:15:04.092Z,100.00
2022-11-06T12:20:14.048Z,100.00
2022-11-06T12:25:23.729Z,100.00
2022-11-06T12:30:26.176Z,98.03
2022-11-06T12:35:34.178Z,84.35
2022-11-06T12:40:40.837Z,68.57
2022-11-06T12:46:10.576Z,59.75
2022-11-06T12:51:34.524Z,67.23
2022-11-06T12:56:57.576Z,70.75
2022-11-06T13:02:11.237Z,60.46
2022-11-06T13:07:38.499Z,45.78
2022-11-06T13:13:11.380Z,49.21
2022-11-06T13:18:25.623Z,75.13
2022-11-06T13:23:41.044Z,94.96
2022-11-06T13:28:57.107Z,100.00
2022-11-06T13:34:02.128Z,100.00
2022-11-06T13:39:17.880Z,100.00
2022-11-06T13:44:22.776Z,100.00
2022-11-06T13:49:58.406Z,100.00
2022-11-06T13:55:15.456Z,100.00
2022-11-06T14:00:21.528Z,100.00
2022-11-06T14:05:45.423Z,100.00
2022-11-06T14:11:04.938Z,100.00
2022-11-06T14:16:22.216Z,100.00
2022-11-06T14:21:36.270Z,100.00
2022-11-06T14:26:51.268Z,100.00
2022-11-06T14:32:11.109Z,100.00
2022-11-06T14:37:19.159Z,100.00
2022-11-06T14:42:26.898Z,100.00
2022-11-06T14:47:35.114Z,100.00
2022-11-06T14:52:48.037Z,100.00
2022-11-06T14:57:54.364Z,100.00
2022-11-06T15:02:56.269Z,100.00
2022-11-06T15:08:05.018Z,100.00
2022-11-06T15:13:17.968Z,100.00
2022-11-06T15:18:23.658Z,100.00
2022-11-06T15:23:25.656Z,100.00
2022-11-06T15:28:32.394Z,100.00
2022-11-06T15:33:40.657Z,100.00
2022-11-06T15:38:44.310Z,100.00
2022-11-06T15:43:49.119Z,100.00
2022-11-06T15:49:18.028Z,100.00
2022-11-06T15:54:40.668Z,100.00
2022-11-06T15:59:42.852Z,100.00
2022-11-06T16:04:45.632Z,100.00
2022-11-06T16:09:48.119Z,100.00
2022-11-06T16:14:49.912Z,100.00
2022-11-06T16:19:54.393Z,100.00
2022-11-06T16:25:00.238Z,100.00
2022-11-06T16:30:06.346Z,100.00
2022-11-06T16:35:34.524Z,100.00
2022-11-06T16:40:51.239Z,100.00
2022-11-06T16:46:09.526Z,100.00
2022-11-06T16:51:28.743Z,100.00
2022-11-06T16:56:35.111Z,100.00
2022-11-06T17:01:40.322Z,100.00
2022-11-06T17:06:44.621Z,100.00
2022-11-06T17:11:46.419Z,100.00
2022-11-06T17:16:54.036Z,100.00
2022-11-06T17:21:56.017Z,100.00
2022-11-06T17:27:02.149Z,100.00
2022-11-06T17:32:04.113Z,100.00
2022-11-06T17:37:06.005Z,100.00
2022-11-06T17:42:07.766Z,100.00
2022-11-06T17:47:09.506Z,100.00
2022-11-06T17:52:11.289Z,100.00
2022-11-06T17:57:15.096Z,100.00
2022-11-06T18:02:35.284Z,100.00
2022-11-06T18:07:40.867Z,100.00
2022-11-06T18:12:42.611Z,100.00
2022-11-06T18:17:44.410Z,100.00
2022-11-06T18:22:46.166Z,100.00
2022-11-06T18:27:47.924Z,100.00
2022-11-06T18:32:49.669Z,100.00
2022-11-06T18:37:51.522Z,100.00
2022-11-06T18:42:55.040Z,100.00
2022-11-06T18:47:57.207Z,100.00
2022-11-06T18:52:58.973Z,100.00
2022-11-06T18:58:00.746Z,100.00
2022-11-06T19:03:02.579Z,100.00
2022-11-06T19:08:04.778Z,100.00
2022-11-06T19:13:06.497Z,100.00
2022-11-06T19:18:08.568Z,100.00
2022-11-06T19:23:15.091Z,100.00
2022-11-06T19:28:17.737Z,100.00
2022-11-06T19:33:19.470Z,100.00
2022-11-06T19:38:22.072Z,100.00
2022-11-06T19:43:23.987Z,100.00
2022-11-06T19:48:25.731Z,100.00
2022-11-06T19:53:27.920Z,100.00
2022-11-06T19:58:29.678Z,100.00
2022-11-06T20:03:31.394Z,100.00
2022-11-06T20:08:33.298Z,100.00
2022-11-06T20:13:39.091Z,100.00
2022-11-06T20:18:41.315Z,100.00
2022-11-06T20:23:43.049Z,100.00
2022-11-06T20:28:46.903Z,100.00
2022-11-06T20:33:49.278Z,100.00
2022-11-06T20:38:53.394Z,100.00
2022-11-06T20:43:56.192Z,100.00
2022-11-06T20:48:58.358Z,100.00
2022-11-06T20:54:00.481Z,100.00
2022-11-06T20:59:02.676Z,100.00
2022-11-06T21:04:04.639Z,100.00
2022-11-06T21:09:07.507Z,100.00
2022-11-06T21:14:09.262Z,100.00
2022-11-06T21:19:11.025Z,100.00
2022-11-06T21:24:12.926Z,100.00
2022-11-06T21:29:14.709Z,100.00
2022-11-06T21:34:17.716Z,100.00
2022-11-06T21:39:20.200Z,100.00
2022-11-06T21:44:21.967Z,100.00
2022-11-06T21:49:23.733Z,100.00
2022-11-06T21:54:44.135Z,100.00
2022-11-06T21:59:45.846Z,100.00
2022-11-06T22:04:47.594Z,100.00
2022-11-06T22:09:49.328Z,100.00
2022-11-06T22:14:51.053Z,100.00
2022-11-06T22:19:52.802Z,100.00
2022-11-06T22:24:54.558Z,100.00
2022-11-06T22:29:56.325Z,100.00
2022-11-06T22:34:58.066Z,100.00
2022-11-06T22:39:59.800Z,100.00
2022-11-06T22:45:01.585Z,100.00
2022-11-06T22:50:03.473Z,100.00
2022-11-06T22:55:05.567Z,100.00
2022-11-06T23:00:08.662Z,100.00
2022-11-06T23:05:10.404Z,100.00
2022-11-06T23:10:12.275Z,100.00
2022-11-06T23:15:14.021Z,100.00
2022-11-06T23:20:16.131Z,100.00
2022-11-06T23:25:19.732Z,100.00
2022-11-06T23:30:21.938Z,100.00
2022-11-06T23:35:26.908Z,100.00
2022-11-06T23:40:32.805Z,100.00
2022-11-06T23:45:49.760Z,100.00
2022-11-06T23:50:51.566Z,100.00
2022-11-06T23:55:53.388Z,100.00
